Terminal Aerodrome Forecast
Issued by NWS Wilmington, OH

Current Version | Previous Version | Graphics & Text | Print | Product List | Glossary On
Versions: 1 2 3 4 5 6 7 8 9 10 11 12 13 14 15 16 17 18 19 20 21 22 23 24 25 26 27 28 29 30 31 32 33
000
FTUS41 KILN 032144 AAD
TAFCMH
TAF AMD
KCMH 032144Z 0322/0418 33009G14KT P6SM VCTS FEW035CB SCT090
      TEMPO 0322/0324 3SM TSRA OVC035CB
     FM040000 VRB03KT P6SM SCT050
     FM040400 VRB03KT P6SM VCTS SCT040CB BKN120
     FM041300 18005KT P6SM VCTS BKN040CB=

USA.gov is the U.S. government's official web portal to all federal, state and local government web resources and services.